Euskara    
Meteorología y climatología de Navarra
Datos de la estación - Meteo Navarra

Estación de Bera (Larrategaña) GN

Altitud 306 m.


Datos desde el 22/11/2020 hasta el 23/11/2020 en horario solar
Los datos son PROVISIONALES

Anterior Página 1 de 1 Siguiente Descargar: Formato para Excel 2000 o superior   Formato csv   Formato para OpenOffice Calc
Fecha Temperatura Humedad relativa Radiación global Insolación Precipitación Vel. viento 10 m Vel. viento 10 m Dir. viento 10 m
°C % W/m² s l/m² m/s km/h °
22/11/2020 0:00 5.1 78 0.0 0 0.0 2.2 8.1 235
22/11/2020 0:10 4.3 83 0.0 0 0.0 2.6 9.5 239
22/11/2020 0:20 5.1 78 0.0 0 0.0 2.7 9.9 233
22/11/2020 0:30 5.3 76 0.0 0 0.0 3.0 10.8 233
22/11/2020 0:40 5.2 75 0.0 0 0.0 3.1 11.1 231
22/11/2020 0:50 5.8 71 0.0 0 0.0 3.0 10.8 233
22/11/2020 1:00 6.4 66 0.0 0 0.0 3.1 11.2 227
22/11/2020 1:10 7.3 62 0.0 0 0.0 3.5 12.7 217
22/11/2020 1:20 7.5 59 0.0 0 0.0 3.2 11.4 213
22/11/2020 1:30 8.2 56 0.0 0 0.0 3.9 14.0 207
22/11/2020 1:40 9.3 50 0.0 0 0.0 3.8 13.7 196
22/11/2020 1:50 9.2 51 0.0 0 0.0 3.5 12.4 213
22/11/2020 2:00 9.2 50 0.0 0 0.0 2.6 9.2 209
22/11/2020 2:10 8.3 54 0.0 0 0.0 2.2 7.9 225
22/11/2020 2:20 8.8 51 0.0 0 0.0 2.7 9.9 203
22/11/2020 2:30 9.6 48 0.0 0 0.0 3.1 11.3 202
22/11/2020 2:40 9.0 51 0.0 0 0.0 3.1 11.3 211
22/11/2020 2:50 8.9 51 0.0 0 0.0 2.2 7.8 188
22/11/2020 3:00 9.1 50 0.0 0 0.0 1.8 6.5 220
22/11/2020 3:10 9.1 50 0.0 0 0.0 2.5 9.0 227
22/11/2020 3:20 9.3 49 0.0 0 0.0 3.0 10.8 218
22/11/2020 3:30 10.0 46 0.0 0 0.0 2.7 9.8 210
22/11/2020 3:40 9.6 48 0.0 0 0.0 2.3 8.2 215
22/11/2020 3:50 9.3 49 0.0 0 0.0 2.3 8.3 219
22/11/2020 4:00 9.6 48 0.0 0 0.0 1.9 7.0 216
22/11/2020 4:10 9.2 50 0.0 0 0.0 3.0 10.9 225
22/11/2020 4:20 9.6 48 0.0 0 0.0 3.6 12.8 215
22/11/2020 4:30 9.7 47 0.0 0 0.0 3.9 13.9 209
22/11/2020 4:40 10.2 45 0.0 0 0.0 3.6 13.0 218
22/11/2020 4:50 9.2 48 0.0 0 0.0 2.3 8.3 204
22/11/2020 5:00 8.9 49 0.0 0 0.0 2.2 7.9 193
22/11/2020 5:10 8.6 51 0.0 0 0.0 0.9 3.2 214
22/11/2020 5:20 9.1 48 0.0 0 0.0 1.3 4.6 223
22/11/2020 5:30 9.0 49 0.0 0 0.0 1.2 4.2 228
22/11/2020 5:40 8.8 49 0.0 0 0.0 0.3 1.2 337
22/11/2020 5:50 8.8 49 0.0 0 0.0 0.8 2.7 194
22/11/2020 6:00 9.0 49 0.0 0 0.0 1.9 7.0 217
22/11/2020 6:10 8.5 51 0.0 0 0.0 2.1 7.7 214
22/11/2020 6:20 8.2 52 0.0 0 0.0 2.3 8.1 228
22/11/2020 6:30 8.3 52 0.0 0 0.0 2.6 9.2 225
22/11/2020 6:40 8.4 51 0.0 0 0.0 2.7 9.6 228
22/11/2020 6:50 8.3 51 0.0 0 0.0 2.6 9.2 228
22/11/2020 7:00 8.2 52 0.0 0 0.0 2.9 10.4 223
22/11/2020 7:10 8.0 53 0.0 0 0.0 2.9 10.4 228
22/11/2020 7:20 8.0 53 0.0 0 0.0 2.9 10.3 225
22/11/2020 7:30 7.9 53 0.0 0 0.0 2.9 10.5 231
22/11/2020 7:40 7.9 53 35.9 454 0.0 3.2 11.3 229
22/11/2020 7:50 7.8 53 61.8 600 0.0 3.2 11.4 226
22/11/2020 8:00 7.9 53 86.0 600 0.0 3.2 11.6 232
22/11/2020 8:10 7.9 53 111.3 600 0.0 3.0 10.9 227
22/11/2020 8:20 8.0 53 137.0 600 0.0 2.8 10.1 230
22/11/2020 8:30 8.3 52 163.0 600 0.0 2.9 10.3 231
22/11/2020 8:40 8.4 52 188.6 600 0.0 2.2 7.9 228
22/11/2020 8:50 8.8 51 211.4 600 0.0 2.6 9.3 225
22/11/2020 9:00 8.9 52 233.4 600 0.0 2.9 10.5 226
22/11/2020 9:10 9.4 50 263.2 600 0.0 2.8 10.1 228
22/11/2020 9:20 9.8 48 285.8 600 0.0 2.9 10.3 228
22/11/2020 9:30 10.0 49 307.2 600 0.0 3.2 11.6 228
22/11/2020 9:40 10.3 48 327.6 600 0.0 2.7 9.6 228
22/11/2020 9:50 10.5 48 347.0 600 0.0 2.8 10.2 223
22/11/2020 10:00 10.9 47 365.4 600 0.0 2.5 9.0 226
22/11/2020 10:10 11.4 47 382.5 600 0.0 2.2 7.8 225
22/11/2020 10:20 11.8 47 398.1 600 0.0 2.4 8.5 225
22/11/2020 10:30 12.0 47 412.8 600 0.0 2.3 8.1 224
22/11/2020 10:40 12.4 45 425.8 600 0.0 2.1 7.7 223
22/11/2020 10:50 12.7 45 437.7 600 0.0 2.2 7.9 224
22/11/2020 11:00 12.8 44 437.1 600 0.0 2.8 10.0 221
22/11/2020 11:10 13.0 44 439.5 600 0.0 2.6 9.3 223
22/11/2020 11:20 13.4 43 452.5 600 0.0 2.5 9.1 224
22/11/2020 11:30 13.7 42 460.5 600 0.0 2.3 8.1 219
22/11/2020 11:40 14.1 41 468.1 600 0.0 2.1 7.5 219
22/11/2020 11:50 14.6 40 471.7 600 0.0 1.8 6.6 221
22/11/2020 12:00 15.2 39 470.6 600 0.0 1.1 3.9 209
22/11/2020 12:10 15.8 37 467.9 600 0.0 0.9 3.3 330
22/11/2020 12:20 14.5 40 464.8 600 0.0 1.5 5.5 11
22/11/2020 12:30 14.6 42 459.2 600 0.0 1.3 4.6 352
22/11/2020 12:40 14.6 47 453.3 600 0.0 1.9 6.9 325
22/11/2020 12:50 14.5 49 445.2 600 0.0 1.7 6.2 344
22/11/2020 13:00 14.6 49 435.7 600 0.0 1.6 5.7 333
22/11/2020 13:10 14.6 49 425.1 600 0.0 1.4 5.1 339
22/11/2020 13:20 14.8 48 413.2 600 0.0 1.5 5.5 357
22/11/2020 13:30 14.6 46 400.7 600 0.0 1.5 5.4 6
22/11/2020 13:40 14.4 46 362.7 600 0.0 1.6 5.8 2
22/11/2020 13:50 14.4 46 362.8 600 0.0 1.6 5.7 6
22/11/2020 14:00 14.3 49 350.1 600 0.0 1.7 6.0 357
22/11/2020 14:10 14.3 49 330.0 600 0.0 1.4 5.1 1
22/11/2020 14:20 14.1 47 308.0 600 0.0 1.5 5.3 3
22/11/2020 14:30 14.1 47 286.9 600 0.0 1.8 6.4 357
22/11/2020 14:40 13.7 46 263.7 600 0.0 1.7 6.1 6
22/11/2020 14:50 13.5 47 241.4 600 0.0 1.2 4.2 6
22/11/2020 15:00 13.9 47 216.4 600 0.0 1.0 3.6 10
22/11/2020 15:10 13.9 47 191.6 600 0.0 1.5 5.4 355
22/11/2020 15:20 13.6 49 165.8 600 0.0 1.7 6.0 339
22/11/2020 15:30 13.2 52 140.6 600 0.0 1.9 6.9 339
22/11/2020 15:40 12.6 55 116.1 600 0.0 1.9 6.7 333
22/11/2020 15:50 12.4 57 92.3 600 0.0 1.7 6.3 343
22/11/2020 16:00 12.2 58 69.6 600 0.0 1.7 6.2 340
22/11/2020 16:10 12.2 58 46.8 600 0.0 0.9 3.3 359
22/11/2020 16:20 12.1 59 24.8 168 0.0 0.5 1.9 137
22/11/2020 16:30 11.9 60 0.0 0 0.0 0.7 2.6 229
22/11/2020 16:40 11.4 63 0.0 0 0.0 1.4 4.9 244
22/11/2020 16:50 10.8 65 0.0 0 0.0 1.3 4.6 251
22/11/2020 17:00 10.7 66 0.0 0 0.0 0.8 3.0 227
22/11/2020 17:10 10.4 67 0.0 0 0.0 0.6 2.3 273
22/11/2020 17:20 10.0 70 0.0 0 0.0 0.8 2.9 250
22/11/2020 17:30 9.7 72 0.0 0 0.0 1.3 4.6 286
22/11/2020 17:40 10.0 72 0.0 0 0.0 1.7 6.2 313
22/11/2020 17:50 10.2 74 0.0 0 0.0 0.8 2.9 353
22/11/2020 18:00 10.0 75 0.0 0 0.0 0.4 1.4 331
22/11/2020 18:10 9.7 76 0.0 0 0.0 0.4 1.4 234
22/11/2020 18:20 9.5 75 0.0 0 0.0 0.9 3.1 224
22/11/2020 18:30 9.4 74 0.0 0 0.0 1.1 4.0 237
22/11/2020 18:40 9.2 74 0.0 0 0.0 1.4 4.9 244
22/11/2020 18:50 9.2 74 0.0 0 0.0 1.1 3.8 237
22/11/2020 19:00 9.2 74 0.0 0 0.0 1.2 4.2 240
22/11/2020 19:10 8.8 75 0.0 0 0.0 1.3 4.8 242
22/11/2020 19:20 8.2 78 0.0 0 0.0 1.7 6.1 242
22/11/2020 19:30 8.1 79 0.0 0 0.0 1.8 6.6 238
22/11/2020 19:40 8.1 79 0.0 0 0.0 1.4 5.2 239
22/11/2020 19:50 7.8 79 0.0 0 0.0 1.3 4.7 235
22/11/2020 20:00 7.7 79 0.0 0 0.0 1.9 6.8 238
22/11/2020 20:10 8.0 76 0.0 0 0.0 2.2 8.1 235
22/11/2020 20:20 7.6 78 0.0 0 0.0 2.6 9.3 237
22/11/2020 20:30 7.1 81 0.0 0 0.0 1.7 6.0 249
22/11/2020 20:40 7.2 80 0.0 0 0.0 1.6 5.7 251
22/11/2020 20:50 7.2 79 0.0 0 0.0 2.3 8.3 244
22/11/2020 21:00 6.8 81 0.0 0 0.0 1.8 6.6 244
22/11/2020 21:10 7.0 80 0.0 0 0.0 1.7 6.0 240
22/11/2020 21:20 7.0 80 0.0 0 0.0 1.8 6.3 252
22/11/2020 21:30 7.1 79 0.0 0 0.0 1.8 6.5 235
22/11/2020 21:40 6.8 80 0.0 0 0.0 2.0 7.1 236
22/11/2020 21:50 6.7 81 0.0 0 0.0 2.2 7.8 239
22/11/2020 22:00 6.6 81 0.0 0 0.0 2.1 7.5 242
22/11/2020 22:10 6.8 80 0.0 0 0.0 1.9 6.8 241
22/11/2020 22:20 7.0 79 0.0 0 0.0 1.8 6.5 246
22/11/2020 22:30 6.8 79 0.0 0 0.0 2.0 7.3 245
22/11/2020 22:40 6.4 82 0.0 0 0.0 2.1 7.6 239
22/11/2020 22:50 5.9 85 0.0 0 0.0 2.2 8.0 237
22/11/2020 23:00 6.2 82 0.0 0 0.0 1.8 6.4 236
22/11/2020 23:10 6.1 83 0.0 0 0.0 2.3 8.2 243
22/11/2020 23:20 4.9 91 0.0 0 0.0 2.4 8.5 240
22/11/2020 23:30 4.5 93 0.0 0 0.0 2.4 8.8 242
22/11/2020 23:40 4.4 93 0.0 0 0.0 2.6 9.4 238
22/11/2020 23:50 4.4 93 0.0 0 0.0 2.4 8.7 238
Anterior Página 1 de 1 Siguiente

NOTA: Tipo de datos según el color:
   - Valores diarios o 10 minutos correctos
   - Valores diarios calculados a partir de un número de datos 10 minutos menor que 144 y mayor que 120, o de un número de datos semihorarios menor que 48 y mayor que 40 (caso de las estaciones de INTIA Y Ministerio)
   - Valores diez minutos estimados


Contacto        Enlaces        Aviso legal